sensor_id;sensor_type;location;lat;lon;timestamp;temperature;humidity
15262;DHT22;7733;51.554;13.590;2023-10-31T00:01:51;13.30;99.90
15262;DHT22;7733;51.554;13.590;2023-10-31T00:04:16;13.30;99.90
15262;DHT22;7733;51.554;13.590;2023-10-31T00:06:42;13.20;99.90
15262;DHT22;7733;51.554;13.590;2023-10-31T00:09:08;13.20;99.90
15262;DHT22;7733;51.554;13.590;2023-10-31T00:11:36;13.30;99.90
15262;DHT22;7733;51.554;13.590;2023-10-31T00:14:02;13.30;99.90
15262;DHT22;7733;51.554;13.590;2023-10-31T00:16:29;13.30;99.90
15262;DHT22;7733;51.554;13.590;2023-10-31T00:18:54;13.40;99.90
15262;DHT22;7733;51.554;13.590;2023-10-31T00:21:20;13.30;99.90
15262;DHT22;7733;51.554;13.590;2023-10-31T00:23:47;13.20;99.90
15262;DHT22;7733;51.554;13.590;2023-10-31T00:26:14;13.20;99.90
15262;DHT22;7733;51.554;13.590;2023-10-31T00:28:41;13.20;99.90
15262;DHT22;7733;51.554;13.590;2023-10-31T00:31:07;13.20;99.90
15262;DHT22;7733;51.554;13.590;2023-10-31T00:33:34;13.20;99.90
15262;DHT22;7733;51.554;13.590;2023-10-31T00:36:01;13.10;99.90
15262;DHT22;7733;51.554;13.590;2023-10-31T00:38:27;13.20;99.90
15262;DHT22;7733;51.554;13.590;2023-10-31T00:40:53;13.20;99.90
15262;DHT22;7733;51.554;13.590;2023-10-31T00:43:19;13.20;99.90
15262;DHT22;7733;51.554;13.590;2023-10-31T00:45:45;13.30;99.90
15262;DHT22;7733;51.554;13.590;2023-10-31T00:48:10;13.20;99.90
15262;DHT22;7733;51.554;13.590;2023-10-31T00:50:36;13.10;99.90
15262;DHT22;7733;51.554;13.590;2023-10-31T00:53:02;13.00;99.90
15262;DHT22;7733;51.554;13.590;2023-10-31T00:55:27;13.00;99.90
15262;DHT22;7733;51.554;13.590;2023-10-31T00:57:53;13.10;99.90
15262;DHT22;7733;51.554;13.590;2023-10-31T01:00:19;13.20;99.90
15262;DHT22;7733;51.554;13.590;2023-10-31T01:02:45;13.20;99.90
15262;DHT22;7733;51.554;13.590;2023-10-31T01:05:11;13.10;99.90
15262;DHT22;7733;51.554;13.590;2023-10-31T01:07:37;13.00;99.90
15262;DHT22;7733;51.554;13.590;2023-10-31T01:10:03;13.00;99.90
15262;DHT22;7733;51.554;13.590;2023-10-31T01:12:30;13.00;99.90
15262;DHT22;7733;51.554;13.590;2023-10-31T01:14:56;13.10;99.90
15262;DHT22;7733;51.554;13.590;2023-10-31T01:17:22;13.00;99.90
15262;DHT22;7733;51.554;13.590;2023-10-31T01:19:48;13.10;99.90
15262;DHT22;7733;51.554;13.590;2023-10-31T01:22:14;12.90;99.90
15262;DHT22;7733;51.554;13.590;2023-10-31T01:24:39;12.80;99.90
15262;DHT22;7733;51.554;13.590;2023-10-31T01:27:05;12.80;99.90
15262;DHT22;7733;51.554;13.590;2023-10-31T01:29:31;13.00;99.90
15262;DHT22;7733;51.554;13.590;2023-10-31T01:31:57;12.80;99.90
15262;DHT22;7733;51.554;13.590;2023-10-31T01:34:22;12.80;99.90
15262;DHT22;7733;51.554;13.590;2023-10-31T01:36:48;12.70;99.90
15262;DHT22;7733;51.554;13.590;2023-10-31T01:39:14;12.80;99.90
15262;DHT22;7733;51.554;13.590;2023-10-31T01:41:43;12.90;99.90
15262;DHT22;7733;51.554;13.590;2023-10-31T01:44:09;12.90;99.90
15262;DHT22;7733;51.554;13.590;2023-10-31T01:46:36;12.80;99.90
15262;DHT22;7733;51.554;13.590;2023-10-31T01:49:02;12.80;99.90
15262;DHT22;7733;51.554;13.590;2023-10-31T01:51:29;12.70;99.90
15262;DHT22;7733;51.554;13.590;2023-10-31T01:53:55;12.80;99.90
15262;DHT22;7733;51.554;13.590;2023-10-31T01:56:23;12.80;99.90
15262;DHT22;7733;51.554;13.590;2023-10-31T01:58:50;12.80;99.90
15262;DHT22;7733;51.554;13.590;2023-10-31T02:01:18;12.80;99.90
15262;DHT22;7733;51.554;13.590;2023-10-31T02:03:45;12.90;99.90
15262;DHT22;7733;51.554;13.590;2023-10-31T02:06:10;12.90;99.90
15262;DHT22;7733;51.554;13.590;2023-10-31T02:08:36;12.90;99.90
15262;DHT22;7733;51.554;13.590;2023-10-31T02:11:02;12.90;99.90
15262;DHT22;7733;51.554;13.590;2023-10-31T02:13:29;12.90;99.90
15262;DHT22;7733;51.554;13.590;2023-10-31T02:15:55;12.90;99.90
15262;DHT22;7733;51.554;13.590;2023-10-31T02:18:21;13.00;99.90
15262;DHT22;7733;51.554;13.590;2023-10-31T02:20:47;13.00;99.90
15262;DHT22;7733;51.554;13.590;2023-10-31T02:23:15;13.00;99.90
15262;DHT22;7733;51.554;13.590;2023-10-31T02:25:41;13.10;99.90
15262;DHT22;7733;51.554;13.590;2023-10-31T02:28:07;13.00;99.90
15262;DHT22;7733;51.554;13.590;2023-10-31T02:30:34;13.10;99.90
15262;DHT22;7733;51.554;13.590;2023-10-31T02:33:01;13.00;99.90
15262;DHT22;7733;51.554;13.590;2023-10-31T02:35:28;13.00;99.90
15262;DHT22;7733;51.554;13.590;2023-10-31T02:37:53;13.00;99.90
15262;DHT22;7733;51.554;13.590;2023-10-31T02:40:19;13.00;99.90
15262;DHT22;7733;51.554;13.590;2023-10-31T02:42:45;13.00;99.90
15262;DHT22;7733;51.554;13.590;2023-10-31T02:45:11;13.00;99.90
15262;DHT22;7733;51.554;13.590;2023-10-31T02:47:37;13.00;99.90
15262;DHT22;7733;51.554;13.590;2023-10-31T02:50:03;13.00;99.90
15262;DHT22;7733;51.554;13.590;2023-10-31T02:52:29;13.00;99.90
15262;DHT22;7733;51.554;13.590;2023-10-31T02:54:55;13.00;99.90
15262;DHT22;7733;51.554;13.590;2023-10-31T02:57:21;12.90;99.90
15262;DHT22;7733;51.554;13.590;2023-10-31T02:59:46;12.90;99.90
15262;DHT22;7733;51.554;13.590;2023-10-31T03:02:12;13.00;99.90
15262;DHT22;7733;51.554;13.590;2023-10-31T03:04:38;12.90;99.90
15262;DHT22;7733;51.554;13.590;2023-10-31T03:07:04;12.90;99.90
15262;DHT22;7733;51.554;13.590;2023-10-31T03:09:30;13.00;99.90
15262;DHT22;7733;51.554;13.590;2023-10-31T03:11:55;13.00;99.90
15262;DHT22;7733;51.554;13.590;2023-10-31T03:14:21;13.00;99.90
15262;DHT22;7733;51.554;13.590;2023-10-31T03:16:47;12.90;99.90
15262;DHT22;7733;51.554;13.590;2023-10-31T03:19:12;13.00;99.90
15262;DHT22;7733;51.554;13.590;2023-10-31T03:21:38;12.90;99.90
15262;DHT22;7733;51.554;13.590;2023-10-31T03:24:05;12.90;99.90
15262;DHT22;7733;51.554;13.590;2023-10-31T03:26:31;12.90;99.90
15262;DHT22;7733;51.554;13.590;2023-10-31T03:28:56;12.90;99.90
15262;DHT22;7733;51.554;13.590;2023-10-31T03:31:23;12.90;99.90
15262;DHT22;7733;51.554;13.590;2023-10-31T03:33:50;12.90;99.90
15262;DHT22;7733;51.554;13.590;2023-10-31T03:36:17;12.90;99.90
15262;DHT22;7733;51.554;13.590;2023-10-31T03:38:43;12.90;99.90
15262;DHT22;7733;51.554;13.590;2023-10-31T03:41:09;12.90;99.90
15262;DHT22;7733;51.554;13.590;2023-10-31T03:43:35;13.00;99.90
15262;DHT22;7733;51.554;13.590;2023-10-31T03:46:01;12.90;99.90
15262;DHT22;7733;51.554;13.590;2023-10-31T03:48:26;12.90;99.90
15262;DHT22;7733;51.554;13.590;2023-10-31T03:50:52;12.90;99.90
15262;DHT22;7733;51.554;13.590;2023-10-31T03:53:18;12.90;99.90
15262;DHT22;7733;51.554;13.590;2023-10-31T03:55:44;12.90;99.90
15262;DHT22;7733;51.554;13.590;2023-10-31T03:58:10;12.90;99.90
15262;DHT22;7733;51.554;13.590;2023-10-31T04:00:36;12.80;99.90
15262;DHT22;7733;51.554;13.590;2023-10-31T04:03:02;12.80;99.90
15262;DHT22;7733;51.554;13.590;2023-10-31T04:05:28;12.80;99.90
15262;DHT22;7733;51.554;13.590;2023-10-31T04:07:53;12.90;99.90
15262;DHT22;7733;51.554;13.590;2023-10-31T04:10:19;12.90;99.90
15262;DHT22;7733;51.554;13.590;2023-10-31T04:12:45;12.80;99.90
15262;DHT22;7733;51.554;13.590;2023-10-31T04:15:11;12.80;99.90
15262;DHT22;7733;51.554;13.590;2023-10-31T04:17:38;12.90;99.90
15262;DHT22;7733;51.554;13.590;2023-10-31T04:20:04;12.90;99.90
15262;DHT22;7733;51.554;13.590;2023-10-31T04:22:30;12.90;99.90
15262;DHT22;7733;51.554;13.590;2023-10-31T04:24:56;12.90;99.90
15262;DHT22;7733;51.554;13.590;2023-10-31T04:27:22;12.90;99.90
15262;DHT22;7733;51.554;13.590;2023-10-31T04:29:48;12.90;99.90
15262;DHT22;7733;51.554;13.590;2023-10-31T04:32:13;12.90;99.90
15262;DHT22;7733;51.554;13.590;2023-10-31T04:34:39;12.80;99.90
15262;DHT22;7733;51.554;13.590;2023-10-31T04:37:05;12.80;99.90
15262;DHT22;7733;51.554;13.590;2023-10-31T04:39:31;12.80;99.90
15262;DHT22;7733;51.554;13.590;2023-10-31T04:41:57;12.80;99.90
15262;DHT22;7733;51.554;13.590;2023-10-31T04:44:22;12.80;99.90
15262;DHT22;7733;51.554;13.590;2023-10-31T04:46:48;12.80;99.90
15262;DHT22;7733;51.554;13.590;2023-10-31T04:49:14;12.80;99.90
15262;DHT22;7733;51.554;13.590;2023-10-31T04:51:41;12.80;99.90
15262;DHT22;7733;51.554;13.590;2023-10-31T04:54:07;12.80;99.90
15262;DHT22;7733;51.554;13.590;2023-10-31T04:56:34;12.80;99.90
15262;DHT22;7733;51.554;13.590;2023-10-31T04:59:00;12.80;99.90
15262;DHT22;7733;51.554;13.590;2023-10-31T05:01:26;12.80;99.90
15262;DHT22;7733;51.554;13.590;2023-10-31T05:03:51;12.80;99.90
15262;DHT22;7733;51.554;13.590;2023-10-31T05:06:22;12.90;99.90
15262;DHT22;7733;51.554;13.590;2023-10-31T05:08:48;12.90;99.90
15262;DHT22;7733;51.554;13.590;2023-10-31T05:11:18;12.90;99.90
15262;DHT22;7733;51.554;13.590;2023-10-31T05:13:45;12.90;99.90
15262;DHT22;7733;51.554;13.590;2023-10-31T05:16:11;12.90;99.90
15262;DHT22;7733;51.554;13.590;2023-10-31T05:18:39;12.90;99.90
15262;DHT22;7733;51.554;13.590;2023-10-31T05:21:05;12.90;99.90
15262;DHT22;7733;51.554;13.590;2023-10-31T05:23:31;12.90;99.90
15262;DHT22;7733;51.554;13.590;2023-10-31T05:25:57;12.90;99.90
15262;DHT22;7733;51.554;13.590;2023-10-31T05:28:23;12.90;99.90
15262;DHT22;7733;51.554;13.590;2023-10-31T05:30:49;12.90;99.90
15262;DHT22;7733;51.554;13.590;2023-10-31T05:33:15;12.90;99.90
15262;DHT22;7733;51.554;13.590;2023-10-31T05:35:42;12.80;99.90
15262;DHT22;7733;51.554;13.590;2023-10-31T05:38:08;12.90;99.90
15262;DHT22;7733;51.554;13.590;2023-10-31T05:40:34;12.90;99.90
15262;DHT22;7733;51.554;13.590;2023-10-31T05:43:02;12.90;99.90
15262;DHT22;7733;51.554;13.590;2023-10-31T05:45:29;12.90;99.90
15262;DHT22;7733;51.554;13.590;2023-10-31T05:47:56;12.90;99.90
15262;DHT22;7733;51.554;13.590;2023-10-31T05:50:22;12.80;99.90
15262;DHT22;7733;51.554;13.590;2023-10-31T05:52:47;12.80;99.90
15262;DHT22;7733;51.554;13.590;2023-10-31T05:55:13;12.80;99.90
15262;DHT22;7733;51.554;13.590;2023-10-31T05:57:39;12.90;99.90
15262;DHT22;7733;51.554;13.590;2023-10-31T06:00:06;12.80;99.90
15262;DHT22;7733;51.554;13.590;2023-10-31T06:02:33;12.90;99.90
15262;DHT22;7733;51.554;13.590;2023-10-31T06:04:58;12.80;99.90
15262;DHT22;7733;51.554;13.590;2023-10-31T06:07:24;12.90;99.90
15262;DHT22;7733;51.554;13.590;2023-10-31T06:09:50;12.90;99.90
15262;DHT22;7733;51.554;13.590;2023-10-31T06:12:16;12.90;99.90
15262;DHT22;7733;51.554;13.590;2023-10-31T06:14:41;12.90;99.90
15262;DHT22;7733;51.554;13.590;2023-10-31T06:17:07;12.90;99.90
15262;DHT22;7733;51.554;13.590;2023-10-31T06:19:36;12.90;99.90
15262;DHT22;7733;51.554;13.590;2023-10-31T06:22:02;12.90;99.90
15262;DHT22;7733;51.554;13.590;2023-10-31T06:24:29;12.90;99.90
15262;DHT22;7733;51.554;13.590;2023-10-31T06:26:55;12.90;99.90
15262;DHT22;7733;51.554;13.590;2023-10-31T06:29:20;12.90;99.90
15262;DHT22;7733;51.554;13.590;2023-10-31T06:31:46;12.90;99.90
15262;DHT22;7733;51.554;13.590;2023-10-31T06:34:12;12.90;99.90
15262;DHT22;7733;51.554;13.590;2023-10-31T06:36:38;12.90;99.90
15262;DHT22;7733;51.554;13.590;2023-10-31T06:39:04;12.90;99.90
15262;DHT22;7733;51.554;13.590;2023-10-31T06:41:30;13.00;99.90
15262;DHT22;7733;51.554;13.590;2023-10-31T06:43:55;13.00;99.90
15262;DHT22;7733;51.554;13.590;2023-10-31T06:46:21;13.00;99.90
15262;DHT22;7733;51.554;13.590;2023-10-31T06:48:47;13.00;99.90
15262;DHT22;7733;51.554;13.590;2023-10-31T06:51:12;13.00;99.90
15262;DHT22;7733;51.554;13.590;2023-10-31T06:53:38;13.00;99.90
15262;DHT22;7733;51.554;13.590;2023-10-31T06:56:04;13.00;99.90
15262;DHT22;7733;51.554;13.590;2023-10-31T06:58:30;12.90;99.90
15262;DHT22;7733;51.554;13.590;2023-10-31T07:00:55;12.90;99.90
15262;DHT22;7733;51.554;13.590;2023-10-31T07:03:23;12.90;99.90
15262;DHT22;7733;51.554;13.590;2023-10-31T07:05:49;12.90;99.90
15262;DHT22;7733;51.554;13.590;2023-10-31T07:08:15;12.90;99.90
15262;DHT22;7733;51.554;13.590;2023-10-31T07:10:41;12.90;99.90
15262;DHT22;7733;51.554;13.590;2023-10-31T07:13:06;12.90;99.90
15262;DHT22;7733;51.554;13.590;2023-10-31T07:15:32;12.90;99.90
15262;DHT22;7733;51.554;13.590;2023-10-31T07:17:58;12.90;99.90
15262;DHT22;7733;51.554;13.590;2023-10-31T07:20:24;12.80;99.90
15262;DHT22;7733;51.554;13.590;2023-10-31T07:22:49;12.90;99.90
15262;DHT22;7733;51.554;13.590;2023-10-31T07:25:15;12.80;99.90
15262;DHT22;7733;51.554;13.590;2023-10-31T07:27:41;12.80;99.90
15262;DHT22;7733;51.554;13.590;2023-10-31T07:30:07;12.80;99.90
15262;DHT22;7733;51.554;13.590;2023-10-31T07:32:33;12.80;99.90
15262;DHT22;7733;51.554;13.590;2023-10-31T07:34:58;12.80;99.90
15262;DHT22;7733;51.554;13.590;2023-10-31T07:37:24;12.80;99.90
15262;DHT22;7733;51.554;13.590;2023-10-31T07:39:50;12.80;99.90
15262;DHT22;7733;51.554;13.590;2023-10-31T07:42:18;12.70;99.90
15262;DHT22;7733;51.554;13.590;2023-10-31T07:44:44;12.70;99.90
15262;DHT22;7733;51.554;13.590;2023-10-31T07:47:10;12.80;99.90
15262;DHT22;7733;51.554;13.590;2023-10-31T07:49:36;12.70;99.90
15262;DHT22;7733;51.554;13.590;2023-10-31T07:52:02;12.70;99.90
15262;DHT22;7733;51.554;13.590;2023-10-31T07:54:27;12.80;99.90
15262;DHT22;7733;51.554;13.590;2023-10-31T07:56:53;12.80;99.90
15262;DHT22;7733;51.554;13.590;2023-10-31T07:59:20;12.80;99.90
15262;DHT22;7733;51.554;13.590;2023-10-31T08:01:46;12.80;99.90
15262;DHT22;7733;51.554;13.590;2023-10-31T08:04:14;12.80;99.90
15262;DHT22;7733;51.554;13.590;2023-10-31T08:06:40;12.80;99.90
15262;DHT22;7733;51.554;13.590;2023-10-31T08:09:06;12.80;99.90
15262;DHT22;7733;51.554;13.590;2023-10-31T08:11:32;12.80;99.90
15262;DHT22;7733;51.554;13.590;2023-10-31T08:13:59;12.80;99.90
15262;DHT22;7733;51.554;13.590;2023-10-31T08:16:25;12.80;99.90
15262;DHT22;7733;51.554;13.590;2023-10-31T08:18:51;12.90;99.90
15262;DHT22;7733;51.554;13.590;2023-10-31T08:21:18;12.90;99.90
15262;DHT22;7733;51.554;13.590;2023-10-31T08:23:43;13.00;99.90
15262;DHT22;7733;51.554;13.590;2023-10-31T08:26:12;13.00;99.90
15262;DHT22;7733;51.554;13.590;2023-10-31T08:28:38;13.00;99.90
15262;DHT22;7733;51.554;13.590;2023-10-31T08:31:04;13.10;99.90
15262;DHT22;7733;51.554;13.590;2023-10-31T08:33:30;13.10;99.90
15262;DHT22;7733;51.554;13.590;2023-10-31T08:35:55;13.10;99.90
15262;DHT22;7733;51.554;13.590;2023-10-31T08:38:21;13.20;99.90
15262;DHT22;7733;51.554;13.590;2023-10-31T08:40:47;13.30;99.90
15262;DHT22;7733;51.554;13.590;2023-10-31T08:43:14;13.30;99.90
15262;DHT22;7733;51.554;13.590;2023-10-31T08:45:40;13.30;99.90
15262;DHT22;7733;51.554;13.590;2023-10-31T08:48:06;13.40;99.90
15262;DHT22;7733;51.554;13.590;2023-10-31T08:50:31;13.60;99.90
15262;DHT22;7733;51.554;13.590;2023-10-31T08:52:57;13.70;99.90
15262;DHT22;7733;51.554;13.590;2023-10-31T08:55:23;13.80;99.90
15262;DHT22;7733;51.554;13.590;2023-10-31T08:57:49;13.70;99.90
15262;DHT22;7733;51.554;13.590;2023-10-31T09:00:15;13.70;99.90
15262;DHT22;7733;51.554;13.590;2023-10-31T09:02:41;13.60;99.90
15262;DHT22;7733;51.554;13.590;2023-10-31T09:05:08;13.60;99.90
15262;DHT22;7733;51.554;13.590;2023-10-31T09:07:34;13.50;99.90
15262;DHT22;7733;51.554;13.590;2023-10-31T09:09:59;13.40;99.90
15262;DHT22;7733;51.554;13.590;2023-10-31T09:12:25;13.40;99.90
15262;DHT22;7733;51.554;13.590;2023-10-31T09:14:51;13.40;99.90
15262;DHT22;7733;51.554;13.590;2023-10-31T09:17:17;13.30;99.90
15262;DHT22;7733;51.554;13.590;2023-10-31T09:19:44;13.30;99.90
15262;DHT22;7733;51.554;13.590;2023-10-31T09:22:09;13.40;99.90
15262;DHT22;7733;51.554;13.590;2023-10-31T09:24:35;13.50;99.90
15262;DHT22;7733;51.554;13.590;2023-10-31T09:27:01;13.50;99.90
15262;DHT22;7733;51.554;13.590;2023-10-31T09:29:26;13.40;99.90
15262;DHT22;7733;51.554;13.590;2023-10-31T09:31:53;13.40;99.90
15262;DHT22;7733;51.554;13.590;2023-10-31T09:34:19;13.40;99.90
15262;DHT22;7733;51.554;13.590;2023-10-31T09:36:45;13.40;99.90
15262;DHT22;7733;51.554;13.590;2023-10-31T09:39:10;13.30;99.90
15262;DHT22;7733;51.554;13.590;2023-10-31T09:41:36;13.20;99.90
15262;DHT22;7733;51.554;13.590;2023-10-31T09:44:02;13.20;99.90
15262;DHT22;7733;51.554;13.590;2023-10-31T09:46:28;13.20;99.90
15262;DHT22;7733;51.554;13.590;2023-10-31T09:48:55;13.20;99.90
15262;DHT22;7733;51.554;13.590;2023-10-31T09:51:21;13.20;99.90
15262;DHT22;7733;51.554;13.590;2023-10-31T09:53:47;13.20;99.90
15262;DHT22;7733;51.554;13.590;2023-10-31T09:56:15;13.30;99.90
15262;DHT22;7733;51.554;13.590;2023-10-31T09:58:42;13.30;99.90
15262;DHT22;7733;51.554;13.590;2023-10-31T10:01:08;13.30;99.90
15262;DHT22;7733;51.554;13.590;2023-10-31T10:03:36;13.30;99.90
15262;DHT22;7733;51.554;13.590;2023-10-31T10:06:03;13.40;99.90
15262;DHT22;7733;51.554;13.590;2023-10-31T10:08:29;13.50;99.90
15262;DHT22;7733;51.554;13.590;2023-10-31T10:10:55;13.50;99.90
15262;DHT22;7733;51.554;13.590;2023-10-31T10:13:21;13.60;99.90
15262;DHT22;7733;51.554;13.590;2023-10-31T10:15:48;13.70;99.90
15262;DHT22;7733;51.554;13.590;2023-10-31T10:18:31;13.70;99.90
15262;DHT22;7733;51.554;13.590;2023-10-31T10:21:03;13.80;99.90
15262;DHT22;7733;51.554;13.590;2023-10-31T10:23:32;13.80;99.90
15262;DHT22;7733;51.554;13.590;2023-10-31T10:25:59;13.90;99.90
15262;DHT22;7733;51.554;13.590;2023-10-31T10:28:28;14.10;99.90
15262;DHT22;7733;51.554;13.590;2023-10-31T10:30:58;14.20;99.90
15262;DHT22;7733;51.554;13.590;2023-10-31T10:33:24;14.30;99.90
15262;DHT22;7733;51.554;13.590;2023-10-31T10:35:50;14.30;99.90
15262;DHT22;7733;51.554;13.590;2023-10-31T10:38:19;14.30;99.90
15262;DHT22;7733;51.554;13.590;2023-10-31T10:40:47;14.10;99.90
15262;DHT22;7733;51.554;13.590;2023-10-31T10:43:25;14.10;99.90
15262;DHT22;7733;51.554;13.590;2023-10-31T10:45:54;14.00;99.90
15262;DHT22;7733;51.554;13.590;2023-10-31T10:48:25;13.90;99.90
15262;DHT22;7733;51.554;13.590;2023-10-31T10:53:48;13.80;99.90
15262;DHT22;7733;51.554;13.590;2023-10-31T10:56:46;13.90;99.90
15262;DHT22;7733;51.554;13.590;2023-10-31T10:59:39;13.70;99.90
15262;DHT22;7733;51.554;13.590;2023-10-31T11:02:08;13.80;99.90
15262;DHT22;7733;51.554;13.590;2023-10-31T11:04:36;13.90;99.90
15262;DHT22;7733;51.554;13.590;2023-10-31T11:07:03;13.90;99.90
15262;DHT22;7733;51.554;13.590;2023-10-31T11:09:31;13.90;99.90
15262;DHT22;7733;51.554;13.590;2023-10-31T11:11:57;14.00;99.90
15262;DHT22;7733;51.554;13.590;2023-10-31T11:14:25;14.00;99.90
15262;DHT22;7733;51.554;13.590;2023-10-31T11:16:54;13.90;99.90
15262;DHT22;7733;51.554;13.590;2023-10-31T11:19:23;13.90;99.90
15262;DHT22;7733;51.554;13.590;2023-10-31T11:22:01;14.00;99.90
15262;DHT22;7733;51.554;13.590;2023-10-31T11:24:32;14.00;99.90
15262;DHT22;7733;51.554;13.590;2023-10-31T11:27:01;14.00;99.90
15262;DHT22;7733;51.554;13.590;2023-10-31T11:29:33;13.90;99.90
15262;DHT22;7733;51.554;13.590;2023-10-31T11:32:01;14.00;99.90
15262;DHT22;7733;51.554;13.590;2023-10-31T11:34:29;14.00;99.90
15262;DHT22;7733;51.554;13.590;2023-10-31T11:37:18;13.90;99.90
15262;DHT22;7733;51.554;13.590;2023-10-31T11:42:43;13.90;99.90
15262;DHT22;7733;51.554;13.590;2023-10-31T11:45:12;13.90;99.90
15262;DHT22;7733;51.554;13.590;2023-10-31T11:47:48;14.00;99.90
15262;DHT22;7733;51.554;13.590;2023-10-31T11:50:15;14.00;99.90
15262;DHT22;7733;51.554;13.590;2023-10-31T11:52:41;14.00;99.90
15262;DHT22;7733;51.554;13.590;2023-10-31T11:55:11;14.00;99.90
15262;DHT22;7733;51.554;13.590;2023-10-31T11:57:40;13.90;99.90
15262;DHT22;7733;51.554;13.590;2023-10-31T12:00:07;13.90;99.90
15262;DHT22;7733;51.554;13.590;2023-10-31T12:03:05;14.00;99.90
15262;DHT22;7733;51.554;13.590;2023-10-31T12:05:32;14.00;99.90
15262;DHT22;7733;51.554;13.590;2023-10-31T12:07:57;14.00;99.90
15262;DHT22;7733;51.554;13.590;2023-10-31T12:10:25;13.90;99.90
15262;DHT22;7733;51.554;13.590;2023-10-31T12:12:52;13.90;99.90
15262;DHT22;7733;51.554;13.590;2023-10-31T12:15:19;13.90;99.90
15262;DHT22;7733;51.554;13.590;2023-10-31T12:17:44;13.90;99.90
15262;DHT22;7733;51.554;13.590;2023-10-31T12:20:10;13.90;99.90
15262;DHT22;7733;51.554;13.590;2023-10-31T12:22:36;13.90;99.90
15262;DHT22;7733;51.554;13.590;2023-10-31T12:25:07;13.90;99.90
15262;DHT22;7733;51.554;13.590;2023-10-31T12:30:17;13.90;99.90
15262;DHT22;7733;51.554;13.590;2023-10-31T12:32:44;13.80;99.90
15262;DHT22;7733;51.554;13.590;2023-10-31T12:35:12;13.80;99.90
15262;DHT22;7733;51.554;13.590;2023-10-31T12:37:45;13.80;99.90
15262;DHT22;7733;51.554;13.590;2023-10-31T12:40:20;13.90;99.90
15262;DHT22;7733;51.554;13.590;2023-10-31T12:42:48;13.80;99.90
15262;DHT22;7733;51.554;13.590;2023-10-31T12:45:15;13.80;99.90
15262;DHT22;7733;51.554;13.590;2023-10-31T12:47:43;13.80;99.90
15262;DHT22;7733;51.554;13.590;2023-10-31T12:50:12;13.70;99.90
15262;DHT22;7733;51.554;13.590;2023-10-31T12:52:51;13.60;99.90
15262;DHT22;7733;51.554;13.590;2023-10-31T12:55:26;13.50;99.90
15262;DHT22;7733;51.554;13.590;2023-10-31T12:57:54;13.50;99.90
15262;DHT22;7733;51.554;13.590;2023-10-31T13:00:21;13.40;99.90
15262;DHT22;7733;51.554;13.590;2023-10-31T13:02:52;13.30;99.90
15262;DHT22;7733;51.554;13.590;2023-10-31T13:05:26;13.00;99.90
15262;DHT22;7733;51.554;13.590;2023-10-31T13:07:53;12.90;99.90
15262;DHT22;7733;51.554;13.590;2023-10-31T13:10:23;12.70;99.90
15262;DHT22;7733;51.554;13.590;2023-10-31T13:12:50;12.60;99.90
15262;DHT22;7733;51.554;13.590;2023-10-31T13:15:18;12.60;99.90
15262;DHT22;7733;51.554;13.590;2023-10-31T13:17:46;12.60;99.90
15262;DHT22;7733;51.554;13.590;2023-10-31T13:20:13;12.70;99.90
15262;DHT22;7733;51.554;13.590;2023-10-31T13:22:41;12.70;99.90
15262;DHT22;7733;51.554;13.590;2023-10-31T13:25:09;12.70;99.90
15262;DHT22;7733;51.554;13.590;2023-10-31T13:27:40;12.80;99.90
15262;DHT22;7733;51.554;13.590;2023-10-31T13:30:08;12.80;99.90
15262;DHT22;7733;51.554;13.590;2023-10-31T13:32:40;12.90;99.90
15262;DHT22;7733;51.554;13.590;2023-10-31T13:35:07;12.90;99.90
15262;DHT22;7733;51.554;13.590;2023-10-31T13:37:36;12.90;99.90
15262;DHT22;7733;51.554;13.590;2023-10-31T13:40:03;13.00;99.90
15262;DHT22;7733;51.554;13.590;2023-10-31T13:42:29;13.00;99.90
15262;DHT22;7733;51.554;13.590;2023-10-31T13:44:55;12.90;99.90
15262;DHT22;7733;51.554;13.590;2023-10-31T13:47:21;12.90;99.90
15262;DHT22;7733;51.554;13.590;2023-10-31T13:49:47;13.00;99.90
15262;DHT22;7733;51.554;13.590;2023-10-31T13:52:14;12.90;99.90
15262;DHT22;7733;51.554;13.590;2023-10-31T13:54:41;12.90;99.90
15262;DHT22;7733;51.554;13.590;2023-10-31T13:57:07;13.00;99.90
15262;DHT22;7733;51.554;13.590;2023-10-31T13:59:33;13.00;99.90
15262;DHT22;7733;51.554;13.590;2023-10-31T14:02:00;13.00;99.90
15262;DHT22;7733;51.554;13.590;2023-10-31T14:04:25;13.00;99.90
15262;DHT22;7733;51.554;13.590;2023-10-31T14:06:51;13.00;99.90
15262;DHT22;7733;51.554;13.590;2023-10-31T14:09:17;13.00;99.90
15262;DHT22;7733;51.554;13.590;2023-10-31T14:11:43;13.10;99.90
15262;DHT22;7733;51.554;13.590;2023-10-31T14:14:09;13.00;99.90
15262;DHT22;7733;51.554;13.590;2023-10-31T14:16:42;13.00;99.90
15262;DHT22;7733;51.554;13.590;2023-10-31T14:19:10;13.10;99.90
15262;DHT22;7733;51.554;13.590;2023-10-31T14:21:38;13.10;99.90
15262;DHT22;7733;51.554;13.590;2023-10-31T14:24:05;13.10;99.90
15262;DHT22;7733;51.554;13.590;2023-10-31T14:26:34;13.00;99.90
15262;DHT22;7733;51.554;13.590;2023-10-31T14:29:01;13.00;99.90
15262;DHT22;7733;51.554;13.590;2023-10-31T14:31:27;13.10;99.90
15262;DHT22;7733;51.554;13.590;2023-10-31T14:33:53;13.10;99.90
15262;DHT22;7733;51.554;13.590;2023-10-31T14:36:19;13.10;99.90
15262;DHT22;7733;51.554;13.590;2023-10-31T14:38:44;13.00;99.90
15262;DHT22;7733;51.554;13.590;2023-10-31T14:41:10;13.00;99.90
15262;DHT22;7733;51.554;13.590;2023-10-31T14:43:36;13.10;99.90
15262;DHT22;7733;51.554;13.590;2023-10-31T14:46:02;13.10;99.90
15262;DHT22;7733;51.554;13.590;2023-10-31T14:48:29;13.10;99.90
15262;DHT22;7733;51.554;13.590;2023-10-31T14:50:55;13.10;99.90
15262;DHT22;7733;51.554;13.590;2023-10-31T14:53:22;13.10;99.90
15262;DHT22;7733;51.554;13.590;2023-10-31T14:55:48;13.10;99.90
15262;DHT22;7733;51.554;13.590;2023-10-31T14:58:14;13.10;99.90
15262;DHT22;7733;51.554;13.590;2023-10-31T15:00:39;13.10;99.90
15262;DHT22;7733;51.554;13.590;2023-10-31T15:03:05;13.10;99.90
15262;DHT22;7733;51.554;13.590;2023-10-31T15:05:32;13.00;99.90
15262;DHT22;7733;51.554;13.590;2023-10-31T15:07:58;13.10;99.90
15262;DHT22;7733;51.554;13.590;2023-10-31T15:10:24;13.00;99.90
15262;DHT22;7733;51.554;13.590;2023-10-31T15:12:51;13.10;99.90
15262;DHT22;7733;51.554;13.590;2023-10-31T15:15:17;13.10;99.90
15262;DHT22;7733;51.554;13.590;2023-10-31T15:17:44;13.00;99.90
15262;DHT22;7733;51.554;13.590;2023-10-31T15:20:10;13.00;99.90
15262;DHT22;7733;51.554;13.590;2023-10-31T15:22:39;13.00;99.90
15262;DHT22;7733;51.554;13.590;2023-10-31T15:25:06;13.00;99.90
15262;DHT22;7733;51.554;13.590;2023-10-31T15:27:32;13.00;99.90
15262;DHT22;7733;51.554;13.590;2023-10-31T15:29:58;13.00;99.90
15262;DHT22;7733;51.554;13.590;2023-10-31T15:32:24;13.00;99.90
15262;DHT22;7733;51.554;13.590;2023-10-31T15:34:50;13.00;99.90
15262;DHT22;7733;51.554;13.590;2023-10-31T15:37:16;13.00;99.90